sensor_id;sensor_type;location;lat;lon;timestamp;pressure;altitude;pressure_sealevel;temperature;humidity
52291;BME280;39663;45.432;28.050;2022-11-03T00:00:27;101691.33;;;19.28;37.35
52291;BME280;39663;45.432;28.050;2022-11-03T00:00:59;101691.24;;;18.88;37.32
52291;BME280;39663;45.432;28.050;2022-11-03T00:01:30;101690.57;;;19.50;37.17
52291;BME280;39663;45.432;28.050;2022-11-03T00:02:01;101690.04;;;19.26;37.12
52291;BME280;39663;45.432;28.050;2022-11-03T00:02:33;101691.79;;;19.28;37.24
52291;BME280;39663;45.432;28.050;2022-11-03T00:03:04;101691.14;;;19.28;37.36
52291;BME280;39663;45.432;28.050;2022-11-03T00:03:36;101690.77;;;19.00;37.49
52291;BME280;39663;45.432;28.050;2022-11-03T00:04:08;101692.05;;;19.14;37.57
52291;BME280;39663;45.432;28.050;2022-11-03T00:04:40;101691.73;;;19.04;37.72
52291;BME280;39663;45.432;28.050;2022-11-03T00:05:11;101689.92;;;18.70;37.69
52291;BME280;39663;45.432;28.050;2022-11-03T00:05:43;101688.69;;;19.34;37.60
52291;BME280;39663;45.432;28.050;2022-11-03T00:06:15;101691.36;;;18.91;37.70
52291;BME280;39663;45.432;28.050;2022-11-03T00:06:48;101689.67;;;19.13;37.55
52291;BME280;39663;45.432;28.050;2022-11-03T00:07:20;101694.64;;;19.13;37.53
52291;BME280;39663;45.432;28.050;2022-11-03T00:07:52;101694.89;;;18.82;37.99
52291;BME280;39663;45.432;28.050;2022-11-03T00:08:23;101693.26;;;18.80;38.22
52291;BME280;39663;45.432;28.050;2022-11-03T00:08:57;101692.31;;;18.69;38.41
52291;BME280;39663;45.432;28.050;2022-11-03T00:09:30;101693.56;;;18.83;38.33
52291;BME280;39663;45.432;28.050;2022-11-03T00:10:02;101694.86;;;18.77;38.38
52291;BME280;39663;45.432;28.050;2022-11-03T00:10:33;101693.96;;;18.52;38.48
52291;BME280;39663;45.432;28.050;2022-11-03T00:11:08;101693.87;;;18.39;38.85
52291;BME280;39663;45.432;28.050;2022-11-03T00:11:41;101695.40;;;18.55;38.51
52291;BME280;39663;45.432;28.050;2022-11-03T00:12:13;101697.55;;;19.14;38.21
52291;BME280;39663;45.432;28.050;2022-11-03T00:12:44;101696.83;;;18.92;38.48
52291;BME280;39663;45.432;28.050;2022-11-03T00:13:16;101697.37;;;18.58;38.67
52291;BME280;39663;45.432;28.050;2022-11-03T00:13:47;101699.29;;;18.55;38.48
52291;BME280;39663;45.432;28.050;2022-11-03T00:14:19;101704.31;;;18.35;38.64
52291;BME280;39663;45.432;28.050;2022-11-03T00:14:50;101704.00;;;18.30;38.69
52291;BME280;39663;45.432;28.050;2022-11-03T00:15:22;101702.63;;;17.98;38.88
52291;BME280;39663;45.432;28.050;2022-11-03T00:15:53;101703.78;;;17.86;39.44
52291;BME280;39663;45.432;28.050;2022-11-03T00:16:25;101703.64;;;17.80;39.47
52291;BME280;39663;45.432;28.050;2022-11-03T00:16:56;101707.81;;;17.95;39.35
52291;BME280;39663;45.432;28.050;2022-11-03T00:17:28;101706.60;;;17.91;39.35
52291;BME280;39663;45.432;28.050;2022-11-03T00:17:59;101704.61;;;17.98;39.34
52291;BME280;39663;45.432;28.050;2022-11-03T00:18:31;101706.49;;;17.97;39.40
52291;BME280;39663;45.432;28.050;2022-11-03T00:19:03;101706.07;;;17.94;39.42
52291;BME280;39663;45.432;28.050;2022-11-03T00:19:34;101704.50;;;17.75;39.57
52291;BME280;39663;45.432;28.050;2022-11-03T00:20:07;101704.73;;;17.80;39.65
52291;BME280;39663;45.432;28.050;2022-11-03T00:20:38;101704.11;;;17.99;39.66
52291;BME280;39663;45.432;28.050;2022-11-03T00:21:12;101706.79;;;17.95;39.55
52291;BME280;39663;45.432;28.050;2022-11-03T00:21:44;101706.87;;;18.31;39.25
52291;BME280;39663;45.432;28.050;2022-11-03T00:22:15;101706.72;;;18.28;39.31
52291;BME280;39663;45.432;28.050;2022-11-03T00:22:46;101705.01;;;18.07;39.37
52291;BME280;39663;45.432;28.050;2022-11-03T00:23:18;101706.49;;;18.01;39.55
52291;BME280;39663;45.432;28.050;2022-11-03T00:23:49;101704.80;;;17.91;39.65
52291;BME280;39663;45.432;28.050;2022-11-03T00:24:20;101704.77;;;17.96;39.65
52291;BME280;39663;45.432;28.050;2022-11-03T00:24:52;101706.29;;;17.74;39.60
52291;BME280;39663;45.432;28.050;2022-11-03T00:25:24;101707.25;;;17.77;39.67
52291;BME280;39663;45.432;28.050;2022-11-03T00:26:03;101707.38;;;17.75;41.06
52291;BME280;39663;45.432;28.050;2022-11-03T00:26:35;101705.63;;;17.85;40.20
52291;BME280;39663;45.432;28.050;2022-11-03T00:27:07;101708.46;;;17.65;40.03
52291;BME280;39663;45.432;28.050;2022-11-03T00:27:38;101707.90;;;18.01;39.58
52291;BME280;39663;45.432;28.050;2022-11-03T00:28:09;101707.93;;;18.17;39.25
52291;BME280;39663;45.432;28.050;2022-11-03T00:28:42;101707.87;;;17.98;39.45
52291;BME280;39663;45.432;28.050;2022-11-03T00:29:14;101708.50;;;18.41;39.21
52291;BME280;39663;45.432;28.050;2022-11-03T00:29:46;101708.60;;;18.25;39.36
52291;BME280;39663;45.432;28.050;2022-11-03T00:30:17;101711.96;;;18.07;39.96
52291;BME280;39663;45.432;28.050;2022-11-03T00:30:49;101713.62;;;18.32;39.76
52291;BME280;39663;45.432;28.050;2022-11-03T00:31:21;101712.95;;;18.65;38.97
52291;BME280;39663;45.432;28.050;2022-11-03T00:31:53;101711.20;;;18.57;38.64
52291;BME280;39663;45.432;28.050;2022-11-03T00:32:24;101712.82;;;18.64;38.54
52291;BME280;39663;45.432;28.050;2022-11-03T00:32:58;101712.29;;;18.78;38.60
52291;BME280;39663;45.432;28.050;2022-11-03T00:33:30;101712.67;;;18.82;38.71
52291;BME280;39663;45.432;28.050;2022-11-03T00:34:03;101713.24;;;18.61;38.89
52291;BME280;39663;45.432;28.050;2022-11-03T00:34:35;101712.17;;;18.33;39.20
52291;BME280;39663;45.432;28.050;2022-11-03T00:35:07;101713.28;;;18.36;39.26
52291;BME280;39663;45.432;28.050;2022-11-03T00:35:38;101715.63;;;18.23;39.37
52291;BME280;39663;45.432;28.050;2022-11-03T00:36:12;101715.38;;;18.18;39.65
52291;BME280;39663;45.432;28.050;2022-11-03T00:36:44;101715.03;;;18.00;39.79
52291;BME280;39663;45.432;28.050;2022-11-03T00:37:16;101717.05;;;18.21;39.21
52291;BME280;39663;45.432;28.050;2022-11-03T00:37:47;101719.45;;;18.37;38.99
52291;BME280;39663;45.432;28.050;2022-11-03T00:38:18;101719.08;;;18.59;38.88
52291;BME280;39663;45.432;28.050;2022-11-03T00:38:50;101718.94;;;18.46;38.96
52291;BME280;39663;45.432;28.050;2022-11-03T00:39:22;101719.41;;;18.22;38.99
52291;BME280;39663;45.432;28.050;2022-11-03T00:39:53;101721.87;;;18.53;39.00
52291;BME280;39663;45.432;28.050;2022-11-03T00:40:24;101722.08;;;18.46;38.98
52291;BME280;39663;45.432;28.050;2022-11-03T00:40:57;101721.57;;;18.23;39.04
52291;BME280;39663;45.432;28.050;2022-11-03T00:41:28;101724.76;;;18.32;38.92
52291;BME280;39663;45.432;28.050;2022-11-03T00:42:00;101724.66;;;18.21;38.98
52291;BME280;39663;45.432;28.050;2022-11-03T00:42:31;101724.51;;;18.15;39.13
52291;BME280;39663;45.432;28.050;2022-11-03T00:43:02;101723.81;;;18.50;39.13
52291;BME280;39663;45.432;28.050;2022-11-03T00:43:35;101725.61;;;18.04;39.16
52291;BME280;39663;45.432;28.050;2022-11-03T00:44:06;101726.69;;;18.06;39.31
52291;BME280;39663;45.432;28.050;2022-11-03T00:44:37;101726.74;;;18.15;39.20
52291;BME280;39663;45.432;28.050;2022-11-03T00:45:09;101730.42;;;18.45;38.95
52291;BME280;39663;45.432;28.050;2022-11-03T00:45:40;101729.54;;;18.37;38.78
52291;BME280;39663;45.432;28.050;2022-11-03T00:46:12;101730.91;;;18.71;38.64
52291;BME280;39663;45.432;28.050;2022-11-03T00:46:44;101731.14;;;18.61;38.71
52291;BME280;39663;45.432;28.050;2022-11-03T00:47:15;101731.12;;;18.63;38.62
52291;BME280;39663;45.432;28.050;2022-11-03T00:47:47;101732.71;;;18.53;38.57
52291;BME280;39663;45.432;28.050;2022-11-03T00:48:18;101730.47;;;18.68;38.32
52291;BME280;39663;45.432;28.050;2022-11-03T00:48:50;101732.46;;;18.69;38.22
52291;BME280;39663;45.432;28.050;2022-11-03T00:49:22;101731.25;;;18.64;38.26
52291;BME280;39663;45.432;28.050;2022-11-03T00:49:53;101733.82;;;18.78;38.00
52291;BME280;39663;45.432;28.050;2022-11-03T00:50:24;101734.61;;;18.86;37.89
52291;BME280;39663;45.432;28.050;2022-11-03T00:51:03;101734.54;;;18.72;38.09
52291;BME280;39663;45.432;28.050;2022-11-03T00:51:35;101735.41;;;18.36;38.42
52291;BME280;39663;45.432;28.050;2022-11-03T00:52:06;101736.65;;;18.18;38.66
52291;BME280;39663;45.432;28.050;2022-11-03T00:52:38;101735.69;;;18.54;38.81
52291;BME280;39663;45.432;28.050;2022-11-03T00:53:09;101735.58;;;18.13;38.76
52291;BME280;39663;45.432;28.050;2022-11-03T00:53:42;101736.70;;;18.33;38.80
52291;BME280;39663;45.432;28.050;2022-11-03T00:54:13;101735.44;;;18.33;38.96
52291;BME280;39663;45.432;28.050;2022-11-03T00:54:45;101734.89;;;17.88;39.12
52291;BME280;39663;45.432;28.050;2022-11-03T00:55:16;101737.17;;;17.78;39.22
52291;BME280;39663;45.432;28.050;2022-11-03T00:55:48;101736.60;;;17.95;39.22
52291;BME280;39663;45.432;28.050;2022-11-03T00:56:21;101736.69;;;17.85;39.45
52291;BME280;39663;45.432;28.050;2022-11-03T00:56:53;101737.90;;;17.69;39.52
52291;BME280;39663;45.432;28.050;2022-11-03T00:57:25;101735.58;;;17.80;39.48
52291;BME280;39663;45.432;28.050;2022-11-03T00:57:56;101734.09;;;18.14;39.41
52291;BME280;39663;45.432;28.050;2022-11-03T00:58:28;101733.90;;;17.72;39.47
52291;BME280;39663;45.432;28.050;2022-11-03T00:59:00;101733.45;;;17.77;39.44
52291;BME280;39663;45.432;28.050;2022-11-03T01:05:08;101726.85;;;18.62;39.07
52291;BME280;39663;45.432;28.050;2022-11-03T01:05:39;101727.78;;;18.20;39.60
52291;BME280;39663;45.432;28.050;2022-11-03T01:06:11;101727.41;;;18.02;39.59
52291;BME280;39663;45.432;28.050;2022-11-03T01:06:45;101725.21;;;18.17;39.49
52291;BME280;39663;45.432;28.050;2022-11-03T01:07:19;101726.51;;;18.50;39.34
52291;BME280;39663;45.432;28.050;2022-11-03T01:07:52;101725.24;;;18.15;39.24
52291;BME280;39663;45.432;28.050;2022-11-03T01:08:23;101727.38;;;18.15;39.55
52291;BME280;39663;45.432;28.050;2022-11-03T01:08:55;101727.42;;;18.12;39.23
52291;BME280;39663;45.432;28.050;2022-11-03T01:09:32;101727.34;;;18.17;39.16
52291;BME280;39663;45.432;28.050;2022-11-03T01:10:04;101727.14;;;18.23;39.14
52291;BME280;39663;45.432;28.050;2022-11-03T01:10:37;101729.20;;;18.36;39.03
52291;BME280;39663;45.432;28.050;2022-11-03T01:11:09;101728.60;;;18.54;38.87
52291;BME280;39663;45.432;28.050;2022-11-03T01:11:41;101729.49;;;18.64;38.75
52291;BME280;39663;45.432;28.050;2022-11-03T01:12:15;101730.09;;;18.78;38.61
52291;BME280;39663;45.432;28.050;2022-11-03T01:12:47;101728.44;;;18.62;38.57
52291;BME280;39663;45.432;28.050;2022-11-03T01:13:18;101728.24;;;18.61;38.67
52291;BME280;39663;45.432;28.050;2022-11-03T01:13:50;101725.93;;;18.59;38.96
52291;BME280;39663;45.432;28.050;2022-11-03T01:14:22;101728.15;;;17.85;39.53
52291;BME280;39663;45.432;28.050;2022-11-03T01:14:53;101728.49;;;18.25;39.60
52291;BME280;39663;45.432;28.050;2022-11-03T01:15:25;101727.91;;;18.05;39.31
52291;BME280;39663;45.432;28.050;2022-11-03T01:15:56;101729.14;;;18.52;39.21
52291;BME280;39663;45.432;28.050;2022-11-03T01:16:29;101727.19;;;18.44;39.08
52291;BME280;39663;45.432;28.050;2022-11-03T01:17:00;101727.34;;;18.36;38.82
52291;BME280;39663;45.432;28.050;2022-11-03T01:17:32;101725.62;;;18.57;38.79
52291;BME280;39663;45.432;28.050;2022-11-03T01:18:03;101723.97;;;18.45;38.81
52291;BME280;39663;45.432;28.050;2022-11-03T01:18:35;101724.44;;;18.60;38.58
52291;BME280;39663;45.432;28.050;2022-11-03T01:19:07;101722.46;;;18.28;38.70
52291;BME280;39663;45.432;28.050;2022-11-03T01:19:38;101719.96;;;17.95;39.27
52291;BME280;39663;45.432;28.050;2022-11-03T01:20:10;101722.12;;;17.97;39.33
52291;BME280;39663;45.432;28.050;2022-11-03T01:20:41;101721.60;;;18.12;39.14
52291;BME280;39663;45.432;28.050;2022-11-03T01:21:13;101719.00;;;18.58;38.99
52291;BME280;39663;45.432;28.050;2022-11-03T01:21:45;101719.65;;;18.56;38.48
52291;BME280;39663;45.432;28.050;2022-11-03T01:22:16;101718.61;;;18.40;38.81
52291;BME280;39663;45.432;28.050;2022-11-03T01:22:48;101718.78;;;18.27;38.75
52291;BME280;39663;45.432;28.050;2022-11-03T01:23:19;101719.58;;;18.06;38.76
52291;BME280;39663;45.432;28.050;2022-11-03T01:23:51;101719.75;;;18.49;38.44
52291;BME280;39663;45.432;28.050;2022-11-03T01:24:22;101722.46;;;18.60;38.28
52291;BME280;39663;45.432;28.050;2022-11-03T01:24:54;101721.10;;;18.15;38.64
52291;BME280;39663;45.432;28.050;2022-11-03T01:25:25;101720.70;;;17.94;38.97
52291;BME280;39663;45.432;28.050;2022-11-03T01:25:56;101720.92;;;17.53;39.69
52291;BME280;39663;45.432;28.050;2022-11-03T01:26:33;101722.45;;;17.31;40.04
52291;BME280;39663;45.432;28.050;2022-11-03T01:27:04;101722.75;;;17.78;39.60
52291;BME280;39663;45.432;28.050;2022-11-03T01:27:36;101723.68;;;18.10;39.20
52291;BME280;39663;45.432;28.050;2022-11-03T01:28:07;101722.46;;;18.42;38.73
52291;BME280;39663;45.432;28.050;2022-11-03T01:28:40;101722.26;;;18.50;38.51
52291;BME280;39663;45.432;28.050;2022-11-03T01:29:12;101723.25;;;18.30;38.59
52291;BME280;39663;45.432;28.050;2022-11-03T01:29:44;101722.92;;;18.58;38.44
52291;BME280;39663;45.432;28.050;2022-11-03T01:30:16;101722.83;;;18.61;38.08
52291;BME280;39663;45.432;28.050;2022-11-03T01:30:47;101722.66;;;18.49;38.30
52291;BME280;39663;45.432;28.050;2022-11-03T01:31:20;101724.73;;;18.60;38.38
52291;BME280;39663;45.432;28.050;2022-11-03T01:31:52;101724.50;;;18.40;38.22
52291;BME280;39663;45.432;28.050;2022-11-03T01:32:23;101724.23;;;18.25;38.61
52291;BME280;39663;45.432;28.050;2022-11-03T01:32:55;101725.34;;;18.38;38.41
52291;BME280;39663;45.432;28.050;2022-11-03T01:33:26;101725.88;;;18.85;38.04
52291;BME280;39663;45.432;28.050;2022-11-03T01:33:58;101726.56;;;18.69;38.02
52291;BME280;39663;45.432;28.050;2022-11-03T01:34:29;101724.87;;;18.83;37.85
52291;BME280;39663;45.432;28.050;2022-11-03T01:35:01;101724.93;;;18.56;37.92
52291;BME280;39663;45.432;28.050;2022-11-03T01:35:32;101727.14;;;18.77;37.65
52291;BME280;39663;45.432;28.050;2022-11-03T01:36:04;101726.27;;;18.91;37.49
52291;BME280;39663;45.432;28.050;2022-11-03T01:36:35;101725.74;;;19.01;37.50
52291;BME280;39663;45.432;28.050;2022-11-03T01:37:07;101724.33;;;19.11;37.16
52291;BME280;39663;45.432;28.050;2022-11-03T01:37:38;101724.70;;;19.12;37.08
52291;BME280;39663;45.432;28.050;2022-11-03T01:38:10;101724.00;;;19.41;37.05
52291;BME280;39663;45.432;28.050;2022-11-03T01:38:42;101722.85;;;19.41;36.71
52291;BME280;39663;45.432;28.050;2022-11-03T01:39:15;101725.00;;;19.40;36.63
52291;BME280;39663;45.432;28.050;2022-11-03T01:39:47;101723.49;;;19.41;36.63
52291;BME280;39663;45.432;28.050;2022-11-03T01:40:19;101726.51;;;19.43;36.51
52291;BME280;39663;45.432;28.050;2022-11-03T01:40:50;101724.03;;;19.49;36.44
52291;BME280;39663;45.432;28.050;2022-11-03T01:41:24;101728.75;;;19.34;36.59
52291;BME280;39663;45.432;28.050;2022-11-03T01:41:56;101729.52;;;19.28;36.71
52291;BME280;39663;45.432;28.050;2022-11-03T01:42:28;101730.13;;;19.17;36.86
52291;BME280;39663;45.432;28.050;2022-11-03T01:43:14;101733.09;;;19.28;36.77
52291;BME280;39663;45.432;28.050;2022-11-03T01:43:48;101736.93;;;19.61;36.57
52291;BME280;39663;45.432;28.050;2022-11-03T01:44:27;101737.46;;;19.35;36.64
52291;BME280;39663;45.432;28.050;2022-11-03T01:44:58;101739.99;;;19.47;36.45
52291;BME280;39663;45.432;28.050;2022-11-03T01:45:30;101742.23;;;19.36;36.52
52291;BME280;39663;45.432;28.050;2022-11-03T01:46:05;101746.30;;;19.24;36.66
52291;BME280;39663;45.432;28.050;2022-11-03T01:46:43;101746.16;;;19.14;36.87
52291;BME280;39663;45.432;28.050;2022-11-03T01:47:21;101748.95;;;19.00;36.97
52291;BME280;39663;45.432;28.050;2022-11-03T01:47:54;101748.94;;;18.88;37.17
52291;BME280;39663;45.432;28.050;2022-11-03T01:48:26;101751.95;;;18.90;37.15
52291;BME280;39663;45.432;28.050;2022-11-03T01:49:01;101751.44;;;18.85;37.21
52291;BME280;39663;45.432;28.050;2022-11-03T01:49:38;101754.38;;;18.97;37.12
52291;BME280;39663;45.432;28.050;2022-11-03T01:50:14;101753.64;;;19.16;36.83
52291;BME280;39663;45.432;28.050;2022-11-03T01:50:47;101757.01;;;19.10;36.88
52291;BME280;39663;45.432;28.050;2022-11-03T01:51:20;101757.01;;;19.25;36.68
52291;BME280;39663;45.432;28.050;2022-11-03T01:51:57;101757.25;;;19.42;36.49
52291;BME280;39663;45.432;28.050;2022-11-03T01:52:34;101757.12;;;19.42;36.38
52291;BME280;39663;45.432;28.050;2022-11-03T01:53:07;101755.69;;;18.87;37.03
52291;BME280;39663;45.432;28.050;2022-11-03T01:53:40;101757.63;;;18.87;36.83
52291;BME280;39663;45.432;28.050;2022-11-03T01:54:15;101757.49;;;19.06;36.62
52291;BME280;39663;45.432;28.050;2022-11-03T01:54:59;101756.67;;;19.28;36.82
52291;BME280;39663;45.432;28.050;2022-11-03T01:55:35;101759.43;;;19.26;36.64
52291;BME280;39663;45.432;28.050;2022-11-03T01:56:09;101759.81;;;18.87;36.85
52291;BME280;39663;45.432;28.050;2022-11-03T01:56:44;101760.38;;;18.94;37.07
52291;BME280;39663;45.432;28.050;2022-11-03T01:57:19;101761.42;;;18.99;37.01
52291;BME280;39663;45.432;28.050;2022-11-03T01:57:54;101761.89;;;18.89;36.90
52291;BME280;39663;45.432;28.050;2022-11-03T01:58:30;101759.55;;;19.11;36.84
52291;BME280;39663;45.432;28.050;2022-11-03T01:59:03;101762.31;;;19.02;36.89
52291;BME280;39663;45.432;28.050;2022-11-03T01:59:35;101761.56;;;18.93;37.05
52291;BME280;39663;45.432;28.050;2022-11-03T02:00:08;101761.00;;;18.99;36.92
52291;BME280;39663;45.432;28.050;2022-11-03T02:00:40;101761.43;;;18.82;37.17
52291;BME280;39663;45.432;28.050;2022-11-03T02:01:13;101759.33;;;18.88;37.30
52291;BME280;39663;45.432;28.050;2022-11-03T02:01:44;101760.06;;;19.10;36.91
52291;BME280;39663;45.432;28.050;2022-11-03T02:02:16;101757.64;;;18.96;36.78
52291;BME280;39663;45.432;28.050;2022-11-03T02:02:48;101759.55;;;19.29;36.57
52291;BME280;39663;45.432;28.050;2022-11-03T02:03:21;101758.83;;;19.41;36.34
52291;BME280;39663;45.432;28.050;2022-11-03T02:03:57;101758.43;;;18.74;37.11
52291;BME280;39663;45.432;28.050;2022-11-03T02:04:31;101761.22;;;18.71;37.18
52291;BME280;39663;45.432;28.050;2022-11-03T02:05:06;101759.83;;;18.75;37.24
52291;BME280;39663;45.432;28.050;2022-11-03T02:05:38;101759.23;;;18.94;37.11
52291;BME280;39663;45.432;28.050;2022-11-03T02:06:11;101759.01;;;19.00;36.96
52291;BME280;39663;45.432;28.050;2022-11-03T02:06:43;101759.78;;;18.65;37.32
52291;BME280;39663;45.432;28.050;2022-11-03T02:07:21;101761.54;;;18.67;37.34
52291;BME280;39663;45.432;28.050;2022-11-03T02:07:58;101760.85;;;19.00;36.95
52291;BME280;39663;45.432;28.050;2022-11-03T02:08:37;101758.81;;;19.21;36.65
52291;BME280;39663;45.432;28.050;2022-11-03T02:09:10;101760.39;;;19.38;36.37
52291;BME280;39663;45.432;28.050;2022-11-03T02:09:42;101760.13;;;19.35;36.35
52291;BME280;39663;45.432;28.050;2022-11-03T02:10:13;101761.49;;;18.90;36.82
52291;BME280;39663;45.432;28.050;2022-11-03T02:10:47;101761.20;;;18.96;36.85
52291;BME280;39663;45.432;28.050;2022-11-03T02:11:18;101759.83;;;19.08;36.72
52291;BME280;39663;45.432;28.050;2022-11-03T02:11:50;101761.78;;;18.88;37.01
52291;BME280;39663;45.432;28.050;2022-11-03T02:12:22;101762.84;;;18.47;37.48
52291;BME280;39663;45.432;28.050;2022-11-03T02:12:54;101762.05;;;18.54;37.51
52291;BME280;39663;45.432;28.050;2022-11-03T02:13:26;101760.87;;;18.57;37.41
52291;BME280;39663;45.432;28.050;2022-11-03T02:13:58;101761.51;;;18.48;37.57
52291;BME280;39663;45.432;28.050;2022-11-03T02:14:29;101761.61;;;18.29;37.61
52291;BME280;39663;45.432;28.050;2022-11-03T02:15:03;101763.14;;;18.78;37.11
52291;BME280;39663;45.432;28.050;2022-11-03T02:15:36;101761.93;;;18.55;37.21
52291;BME280;39663;45.432;28.050;2022-11-03T02:16:08;101763.22;;;18.42;37.57
52291;BME280;39663;45.432;28.050;2022-11-03T02:16:41;101760.05;;;18.43;37.62
52291;BME280;39663;45.432;28.050;2022-11-03T02:17:15;101763.73;;;18.39;37.65
52291;BME280;39663;45.432;28.050;2022-11-03T02:17:51;101760.47;;;18.16;38.05
52291;BME280;39663;45.432;28.050;2022-11-03T02:18:27;101763.60;;;17.63;38.63
52291;BME280;39663;45.432;28.050;2022-11-03T02:19:01;101765.80;;;18.01;38.28
52291;BME280;39663;45.432;28.050;2022-11-03T02:19:38;101764.10;;;17.95;38.27
52291;BME280;39663;45.432;28.050;2022-11-03T02:20:13;101763.64;;;18.29;37.92
52291;BME280;39663;45.432;28.050;2022-11-03T02:20:49;101763.07;;;17.99;38.14
52291;BME280;39663;45.432;28.050;2022-11-03T02:21:28;101764.16;;;18.72;37.81
52291;BME280;39663;45.432;28.050;2022-11-03T02:22:06;101765.24;;;18.32;37.79
52291;BME280;39663;45.432;28.050;2022-11-03T02:23:03;101766.31;;;18.40;37.71
52291;BME280;39663;45.432;28.050;2022-11-03T02:23:41;101765.62;;;18.40;37.66
52291;BME280;39663;45.432;28.050;2022-11-03T02:24:17;101764.76;;;18.15;37.92
52291;BME280;39663;45.432;28.050;2022-11-03T02:24:58;101766.79;;;18.55;37.44
52291;BME280;39663;45.432;28.050;2022-11-03T02:25:41;101769.59;;;18.43;37.51
52291;BME280;39663;45.432;28.050;2022-11-03T02:26:14;101771.18;;;18.28;37.92
52291;BME280;39663;45.432;28.050;2022-11-03T02:26:47;101768.12;;;18.57;37.54
52291;BME280;39663;45.432;28.050;2022-11-03T02:27:20;101770.74;;;18.07;37.89
52291;BME280;39663;45.432;28.050;2022-11-03T02:27:52;101769.64;;;18.02;38.30
52291;BME280;39663;45.432;28.050;2022-11-03T02:28:26;101770.76;;;18.12;38.06
52291;BME280;39663;45.432;28.050;2022-11-03T02:28:58;101771.06;;;18.17;38.07
52291;BME280;39663;45.432;28.050;2022-11-03T02:29:29;101769.73;;;17.99;38.21
52291;BME280;39663;45.432;28.050;2022-11-03T02:30:01;101768.30;;;17.93;38.25
52291;BME280;39663;45.432;28.050;2022-11-03T02:30:37;101768.03;;;18.15;38.00
52291;BME280;39663;45.432;28.050;2022-11-03T02:31:13;101770.33;;;18.36;37.67
52291;BME280;39663;45.432;28.050;2022-11-03T02:31:50;101768.41;;;18.65;37.39
52291;BME280;39663;45.432;28.050;2022-11-03T02:32:31;101769.48;;;18.66;37.23
52291;BME280;39663;45.432;28.050;2022-11-03T02:33:10;101771.67;;;18.75;37.22
52291;BME280;39663;45.432;28.050;2022-11-03T02:33:48;101771.84;;;18.64;37.59
52291;BME280;39663;45.432;28.050;2022-11-03T02:34:30;101774.81;;;18.42;37.68
52291;BME280;39663;45.432;28.050;2022-11-03T02:35:10;101773.45;;;18.28;37.55
52291;BME280;39663;45.432;28.050;2022-11-03T02:35:47;101774.85;;;18.27;37.46
52291;BME280;39663;45.432;28.050;2022-11-03T02:36:26;101775.16;;;18.04;38.09
52291;BME280;39663;45.432;28.050;2022-11-03T02:37:02;101777.36;;;18.13;37.82
52291;BME280;39663;45.432;28.050;2022-11-03T02:37:38;101779.52;;;18.37;37.45
52291;BME280;39663;45.432;28.050;2022-11-03T02:38:14;101779.88;;;18.50;37.26
52291;BME280;39663;45.432;28.050;2022-11-03T02:38:51;101780.66;;;18.70;36.85
52291;BME280;39663;45.432;28.050;2022-11-03T02:39:29;101781.53;;;18.60;37.14
52291;BME280;39663;45.432;28.050;2022-11-03T02:40:09;101782.15;;;18.81;36.98
52291;BME280;39663;45.432;28.050;2022-11-03T02:40:47;101783.54;;;18.93;36.82
52291;BME280;39663;45.432;28.050;2022-11-03T02:41:20;101783.24;;;19.04;36.58
52291;BME280;39663;45.432;28.050;2022-11-03T02:41:53;101784.24;;;18.68;36.64
52291;BME280;39663;45.432;28.050;2022-11-03T02:42:27;101782.45;;;18.16;37.39
52291;BME280;39663;45.432;28.050;2022-11-03T02:43:00;101784.79;;;18.33;37.48
52291;BME280;39663;45.432;28.050;2022-11-03T02:43:32;101784.71;;;18.56;36.99
52291;BME280;39663;45.432;28.050;2022-11-03T02:44:05;101784.57;;;19.04;36.69
52291;BME280;39663;45.432;28.050;2022-11-03T02:44:38;101785.90;;;18.92;36.65
52291;BME280;39663;45.432;28.050;2022-11-03T02:45:13;101786.57;;;18.87;36.64
52291;BME280;39663;45.432;28.050;2022-11-03T02:45:47;101786.66;;;18.42;37.14
52291;BME280;39663;45.432;28.050;2022-11-03T02:46:20;101790.15;;;18.20;37.21
52291;BME280;39663;45.432;28.050;2022-11-03T02:46:56;101790.47;;;18.09;37.34
52291;BME280;39663;45.432;28.050;2022-11-03T02:47:29;101790.88;;;18.18;37.38
52291;BME280;39663;45.432;28.050;2022-11-03T02:48:03;101793.52;;;17.96;37.55
52291;BME280;39663;45.432;28.050;2022-11-03T02:48:35;101793.85;;;17.52;38.21
52291;BME280;39663;45.432;28.050;2022-11-03T02:49:07;101792.11;;;17.27;38.62
52291;BME280;39663;45.432;28.050;2022-11-03T02:49:39;101792.44;;;17.47;38.74
52291;BME280;39663;45.432;28.050;2022-11-03T02:50:11;101795.78;;;17.75;38.22
52291;BME280;39663;45.432;28.050;2022-11-03T02:50:42;101794.65;;;17.81;37.70
52291;BME280;39663;45.432;28.050;2022-11-03T02:51:14;101796.55;;;18.10;37.54
52291;BME280;39663;45.432;28.050;2022-11-03T02:51:45;101796.43;;;18.45;37.49
52291;BME280;39663;45.432;28.050;2022-11-03T02:52:36;101795.46;;;18.34;37.37
52291;BME280;39663;45.432;28.050;2022-11-03T02:53:11;101800.10;;;17.65;37.95
52291;BME280;39663;45.432;28.050;2022-11-03T02:53:47;101799.77;;;17.08;38.62
52291;BME280;39663;45.432;28.050;2022-11-03T02:54:25;101800.86;;;17.35;38.79
52291;BME280;39663;45.432;28.050;2022-11-03T02:55:01;101798.93;;;17.71;38.40
52291;BME280;39663;45.432;28.050;2022-11-03T02:55:38;101803.61;;;17.10;38.72
52291;BME280;39663;45.432;28.050;2022-11-03T02:56:14;101801.27;;;17.44;38.50
52291;BME280;39663;45.432;28.050;2022-11-03T02:56:50;101803.78;;;16.91;39.26
52291;BME280;39663;45.432;28.050;2022-11-03T02:57:28;101804.23;;;17.37;38.94